createdAt,value
2017-03-25T00:00:57.114Z,94.60
2017-03-25T00:02:03.192Z,94.70
2017-03-25T00:03:09.176Z,94.50
2017-03-25T00:04:15.116Z,94.40
2017-03-25T00:05:21.658Z,94.50
2017-03-25T00:06:27.648Z,94.50
2017-03-25T00:07:33.358Z,94.50
2017-03-25T00:08:39.920Z,94.60
2017-03-25T00:09:45.639Z,94.60
2017-03-25T00:10:51.411Z,94.70
2017-03-25T00:11:57.116Z,94.80
2017-03-25T00:13:07.515Z,94.90
2017-03-25T00:14:13.273Z,94.90
2017-03-25T00:15:18.988Z,94.90
2017-03-25T00:16:24.850Z,94.80
2017-03-25T00:17:30.566Z,94.90
2017-03-25T00:18:36.257Z,95.00
2017-03-25T00:19:42.004Z,95.10
2017-03-25T00:20:48.036Z,95.10
2017-03-25T00:21:54.504Z,95.10
2017-03-25T00:23:00.220Z,95.00
2017-03-25T00:24:06.236Z,95.10
2017-03-25T00:25:12.135Z,95.10
2017-03-25T00:26:17.885Z,95.10
2017-03-25T00:27:32.375Z,95.40
2017-03-25T00:28:43.629Z,95.20
2017-03-25T00:29:58.926Z,95.20
2017-03-25T00:31:06.219Z,95.30
2017-03-25T00:32:16.563Z,95.60
2017-03-25T00:33:22.650Z,95.40
2017-03-25T00:34:29.208Z,95.50
2017-03-25T00:35:38.422Z,95.60
2017-03-25T00:36:44.234Z,95.70
2017-03-25T00:37:50.848Z,95.70
2017-03-25T00:38:56.638Z,95.70
2017-03-25T00:40:03.026Z,95.70
2017-03-25T00:41:09.800Z,95.80
2017-03-25T00:42:15.790Z,95.80
2017-03-25T00:43:21.599Z,95.90
2017-03-25T00:44:27.377Z,95.50
2017-03-25T00:45:33.880Z,95.90
2017-03-25T00:46:39.657Z,95.60
2017-03-25T00:47:45.373Z,95.80
2017-03-25T00:48:51.239Z,95.90
2017-03-25T00:49:56.961Z,95.90
2017-03-25T00:51:03.689Z,96.00
2017-03-25T00:52:09.989Z,96.00
2017-03-25T00:53:16.462Z,96.10
2017-03-25T00:54:22.428Z,96.20
2017-03-25T00:55:28.167Z,96.30
2017-03-25T00:56:34.792Z,96.20
2017-03-25T00:57:40.781Z,96.20
2017-03-25T00:58:46.823Z,96.00
2017-03-25T00:59:52.743Z,96.10
2017-03-25T01:00:59.419Z,96.30
2017-03-25T01:02:05.477Z,96.30
2017-03-25T01:03:11.577Z,96.40
2017-03-25T01:04:17.420Z,96.50
2017-03-25T01:05:23.354Z,96.70
2017-03-25T01:06:29.097Z,96.70
2017-03-25T01:07:34.990Z,96.70
2017-03-25T01:08:40.977Z,96.70
2017-03-25T01:09:46.833Z,96.70
2017-03-25T01:10:52.578Z,96.80
2017-03-25T01:11:58.437Z,96.80
2017-03-25T01:13:07.612Z,96.80
2017-03-25T01:14:13.314Z,96.80
2017-03-25T01:15:19.080Z,97.00
2017-03-25T01:16:25.591Z,97.00
2017-03-25T01:17:31.317Z,96.90
2017-03-25T01:18:37.030Z,97.00
2017-03-25T01:19:42.815Z,97.00
2017-03-25T01:20:48.658Z,97.00
2017-03-25T01:21:54.394Z,97.10
2017-03-25T01:23:00.217Z,97.20
2017-03-25T01:24:06.058Z,97.20
2017-03-25T01:25:12.043Z,97.30
2017-03-25T01:26:17.707Z,97.40
2017-03-25T01:27:23.549Z,97.40
2017-03-25T01:28:33.547Z,97.30
2017-03-25T01:29:39.813Z,97.30
2017-03-25T01:30:45.679Z,97.30
2017-03-25T01:31:51.469Z,97.30
2017-03-25T01:32:57.174Z,97.30
2017-03-25T01:34:02.881Z,97.40
2017-03-25T01:35:08.657Z,97.40
2017-03-25T01:36:14.410Z,97.40
2017-03-25T01:37:20.080Z,97.40
2017-03-25T01:38:25.933Z,97.40
2017-03-25T01:39:31.785Z,97.40
2017-03-25T01:40:38.362Z,97.40
2017-03-25T01:41:44.064Z,97.30
2017-03-25T01:42:49.797Z,97.30
2017-03-25T01:43:55.561Z,97.40
2017-03-25T01:45:01.403Z,97.40
2017-03-25T01:46:07.198Z,97.60
2017-03-25T01:47:13.092Z,97.60
2017-03-25T01:48:18.826Z,97.60
2017-03-25T01:49:24.678Z,97.70
2017-03-25T01:50:30.702Z,97.80
2017-03-25T01:51:36.624Z,97.80
2017-03-25T01:52:42.690Z,97.90
2017-03-25T01:53:48.620Z,98.10
2017-03-25T01:54:54.295Z,98.20
2017-03-25T01:56:00.064Z,98.10
2017-03-25T01:57:05.837Z,98.20
2017-03-25T01:58:11.566Z,98.30
2017-03-25T01:59:17.279Z,98.20
2017-03-25T02:00:23.390Z,98.60
2017-03-25T02:01:29.217Z,98.50
2017-03-25T02:02:34.954Z,98.70
2017-03-25T02:03:40.732Z,98.80
2017-03-25T02:04:46.608Z,98.90
2017-03-25T02:05:52.433Z,99.00
2017-03-25T02:06:58.303Z,99.00
2017-03-25T02:09:16.498Z,99.20
2017-03-25T02:10:22.341Z,99.00
2017-03-25T02:11:28.276Z,99.00
2017-03-25T02:12:34.096Z,99.10
2017-03-25T02:13:39.969Z,99.20
2017-03-25T02:14:45.834Z,99.30
2017-03-25T02:15:51.588Z,99.30
2017-03-25T02:16:57.521Z,99.30
2017-03-25T02:18:04.094Z,99.40
2017-03-25T02:19:09.802Z,99.20
2017-03-25T02:20:15.541Z,99.20
2017-03-25T02:21:21.392Z,99.30
2017-03-25T02:22:27.417Z,99.40
2017-03-25T02:23:34.102Z,99.40
2017-03-25T02:24:40.860Z,99.80
2017-03-25T02:25:46.696Z,99.40
2017-03-25T02:26:52.405Z,99.40
2017-03-25T02:27:58.346Z,99.30
2017-03-25T02:29:04.114Z,99.20
2017-03-25T02:30:09.863Z,99.30
2017-03-25T02:31:16.337Z,99.40
2017-03-25T02:32:22.099Z,99.30
2017-03-25T02:33:27.904Z,99.40
2017-03-25T02:34:33.634Z,99.30
2017-03-25T02:35:39.678Z,99.20
2017-03-25T02:36:45.415Z,99.20
2017-03-25T02:37:51.961Z,99.30
2017-03-25T02:38:58.460Z,99.40
2017-03-25T02:40:04.374Z,99.40
2017-03-25T02:41:10.225Z,99.50
2017-03-25T02:42:15.975Z,99.20
2017-03-25T02:43:21.776Z,99.20
2017-03-25T02:44:27.807Z,99.20
2017-03-25T02:45:34.342Z,99.40
2017-03-25T02:46:40.113Z,99.40
2017-03-25T02:47:46.080Z,99.60
2017-03-25T02:48:51.879Z,99.30
2017-03-25T02:49:57.674Z,99.30
2017-03-25T02:51:03.730Z,99.30
2017-03-25T02:52:09.604Z,99.20
2017-03-25T02:53:16.113Z,99.10
2017-03-25T02:54:22.830Z,99.20
2017-03-25T02:55:28.600Z,99.60
2017-03-25T02:56:34.386Z,99.50
2017-03-25T02:57:40.133Z,99.70
2017-03-25T02:58:45.949Z,99.70
2017-03-25T02:59:51.771Z,99.70
2017-03-25T03:00:58.317Z,99.70
2017-03-25T03:02:04.194Z,99.70
2017-03-25T03:03:09.991Z,99.60
2017-03-25T03:04:15.730Z,99.70
2017-03-25T03:05:22.193Z,99.70
2017-03-25T03:06:28.092Z,99.60
2017-03-25T03:07:34.071Z,99.60
2017-03-25T03:08:40.004Z,99.90
2017-03-25T03:09:45.793Z,99.90
2017-03-25T03:10:52.544Z,99.90
2017-03-25T03:11:58.337Z,99.90
2017-03-25T03:13:04.958Z,99.90
2017-03-25T03:14:10.707Z,99.90
2017-03-25T03:15:16.489Z,99.90
2017-03-25T03:16:22.341Z,99.90
2017-03-25T03:17:28.319Z,99.90
2017-03-25T03:18:34.026Z,99.90
2017-03-25T03:19:40.509Z,99.90
2017-03-25T03:20:46.324Z,99.90
2017-03-25T03:21:52.255Z,99.90
2017-03-25T03:22:58.226Z,99.90
2017-03-25T03:24:04.216Z,99.90
2017-03-25T03:25:10.187Z,99.90
2017-03-25T03:26:15.992Z,99.90
2017-03-25T03:27:21.947Z,99.90
2017-03-25T03:28:28.111Z,99.90
2017-03-25T03:29:34.206Z,99.90
2017-03-25T03:30:40.168Z,99.90
2017-03-25T03:31:46.032Z,99.90
2017-03-25T03:32:51.769Z,99.90
2017-03-25T03:33:57.708Z,99.90
2017-03-25T03:35:03.462Z,99.90
2017-03-25T03:36:09.581Z,99.90
2017-03-25T03:37:15.532Z,99.90
2017-03-25T03:38:21.618Z,99.90
2017-03-25T03:39:27.584Z,99.90
2017-03-25T03:40:33.309Z,99.90
2017-03-25T03:41:39.168Z,99.90
2017-03-25T03:42:44.969Z,99.90
2017-03-25T03:43:50.856Z,99.90
2017-03-25T03:44:56.649Z,99.90
2017-03-25T03:46:02.583Z,99.90
2017-03-25T03:47:08.351Z,99.90
2017-03-25T03:48:14.336Z,99.90
2017-03-25T03:49:20.207Z,99.90
2017-03-25T03:50:26.793Z,99.90
2017-03-25T03:51:33.237Z,99.90
2017-03-25T03:52:39.703Z,99.90
2017-03-25T03:53:45.546Z,99.90
2017-03-25T03:54:51.513Z,99.90
2017-03-25T03:55:57.466Z,99.90
2017-03-25T03:57:03.397Z,99.90
2017-03-25T03:58:09.860Z,99.90
2017-03-25T03:59:16.604Z,99.90
2017-03-25T04:00:22.581Z,99.90
2017-03-25T04:01:28.502Z,99.90
2017-03-25T04:02:34.507Z,99.90
2017-03-25T04:03:41.049Z,99.90
2017-03-25T04:04:47.121Z,99.90
2017-03-25T04:05:53.103Z,99.90
2017-03-25T04:06:58.875Z,99.90
2017-03-25T04:08:04.618Z,99.90
2017-03-25T04:09:10.419Z,99.90
2017-03-25T04:10:16.416Z,99.90
2017-03-25T04:11:22.347Z,99.90
2017-03-25T04:12:28.466Z,99.90
2017-03-25T04:13:34.525Z,99.90
2017-03-25T04:14:40.472Z,99.90
2017-03-25T04:15:46.458Z,99.90
2017-03-25T04:16:52.381Z,99.90
2017-03-25T04:17:58.173Z,99.90
2017-03-25T04:19:04.038Z,99.90
2017-03-25T04:20:10.039Z,99.90
2017-03-25T04:21:15.845Z,99.90
2017-03-25T04:22:21.611Z,99.90
2017-03-25T04:23:27.330Z,99.90
2017-03-25T04:24:34.028Z,99.90
2017-03-25T04:25:39.838Z,99.90
2017-03-25T04:26:45.931Z,99.90
2017-03-25T04:27:52.559Z,99.90
2017-03-25T04:28:58.404Z,99.90
2017-03-25T04:30:04.220Z,99.80
2017-03-25T04:31:10.014Z,99.70
2017-03-25T04:32:15.934Z,99.50
2017-03-25T04:33:21.835Z,99.40
2017-03-25T04:34:27.839Z,99.40
2017-03-25T04:35:33.801Z,99.30
2017-03-25T04:36:39.545Z,99.20
2017-03-25T04:37:45.856Z,99.20
2017-03-25T04:38:51.856Z,99.00
2017-03-25T04:39:58.677Z,99.00
2017-03-25T04:41:04.702Z,98.80
2017-03-25T04:42:11.263Z,99.00
2017-03-25T04:43:17.132Z,98.70
2017-03-25T04:44:23.137Z,98.60
2017-03-25T04:45:35.797Z,98.50
2017-03-25T04:46:41.691Z,98.40
2017-03-25T04:47:48.331Z,98.70
2017-03-25T04:48:54.814Z,98.20
2017-03-25T04:50:00.798Z,98.10
2017-03-25T04:51:06.559Z,98.10
2017-03-25T04:52:12.398Z,98.10
2017-03-25T04:53:18.351Z,97.90
2017-03-25T04:54:24.354Z,97.90
2017-03-25T04:55:30.143Z,97.90
2017-03-25T04:56:36.040Z,97.90
2017-03-25T04:57:42.014Z,97.90
2017-03-25T04:58:47.781Z,97.90
2017-03-25T04:59:53.676Z,97.70
2017-03-25T05:00:59.609Z,97.70
2017-03-25T05:02:06.163Z,97.60
2017-03-25T05:03:12.728Z,97.60
2017-03-25T05:04:18.489Z,97.60
2017-03-25T05:05:24.467Z,97.50
2017-03-25T05:06:30.275Z,97.60
2017-03-25T05:07:35.973Z,97.60
2017-03-25T05:08:42.562Z,97.60
2017-03-25T05:09:49.012Z,97.50
2017-03-25T05:10:54.769Z,97.50
2017-03-25T05:12:00.545Z,97.50
2017-03-25T05:13:06.504Z,97.50
2017-03-25T05:14:12.484Z,97.40
2017-03-25T05:15:18.436Z,97.30
2017-03-25T05:16:24.264Z,97.30
2017-03-25T05:17:30.050Z,97.20
2017-03-25T05:18:35.997Z,97.10
2017-03-25T05:19:41.753Z,96.90
2017-03-25T05:20:47.505Z,97.00
2017-03-25T05:21:53.451Z,97.00
2017-03-25T05:22:59.295Z,97.00
2017-03-25T05:24:05.264Z,96.90
2017-03-25T05:25:11.165Z,97.00
2017-03-25T05:26:17.152Z,97.00
2017-03-25T05:27:22.999Z,96.90
2017-03-25T05:28:28.854Z,96.80
2017-03-25T05:29:34.862Z,96.70
2017-03-25T05:30:40.903Z,96.60
2017-03-25T05:31:46.917Z,96.70
2017-03-25T05:32:53.431Z,96.60
2017-03-25T05:33:59.290Z,96.60
2017-03-25T05:35:05.292Z,96.70
2017-03-25T05:36:11.104Z,96.70
2017-03-25T05:37:17.038Z,96.70
2017-03-25T05:38:22.884Z,96.60
2017-03-25T05:39:28.733Z,96.80
2017-03-25T05:40:34.508Z,96.80
2017-03-25T05:41:40.222Z,96.70
2017-03-25T05:42:46.663Z,96.80
2017-03-25T05:43:52.652Z,96.80
2017-03-25T05:44:58.603Z,96.80
2017-03-25T05:46:04.573Z,96.90
2017-03-25T05:47:10.520Z,96.80
2017-03-25T05:48:16.560Z,96.80
2017-03-25T05:49:22.600Z,96.80
2017-03-25T05:50:28.568Z,96.80
2017-03-25T05:51:35.620Z,96.90
2017-03-25T05:52:41.392Z,96.80
2017-03-25T05:53:47.969Z,96.90
2017-03-25T05:54:53.757Z,96.80
2017-03-25T05:55:59.623Z,96.80
2017-03-25T05:57:05.398Z,96.70
2017-03-25T05:58:11.435Z,96.70
2017-03-25T05:59:17.409Z,96.70
2017-03-25T06:00:23.459Z,96.90
2017-03-25T06:01:29.257Z,96.90
2017-03-25T06:02:35.177Z,96.90
2017-03-25T06:03:41.252Z,97.00
2017-03-25T06:04:47.222Z,97.10
2017-03-25T06:05:53.245Z,97.00
2017-03-25T06:06:59.067Z,97.10
2017-03-25T06:08:04.838Z,97.10
2017-03-25T06:09:11.462Z,97.20
2017-03-25T06:10:17.231Z,97.10
2017-03-25T06:11:23.293Z,97.20
2017-03-25T06:12:29.163Z,97.30
2017-03-25T06:13:35.250Z,97.30
2017-03-25T06:14:40.988Z,97.40
2017-03-25T06:15:47.692Z,97.50
2017-03-25T06:16:53.436Z,97.50
2017-03-25T06:17:59.261Z,97.50
2017-03-25T06:19:05.058Z,97.50
2017-03-25T06:20:10.913Z,97.50
2017-03-25T06:21:16.651Z,97.60
2017-03-25T06:22:22.405Z,97.50
2017-03-25T06:23:28.263Z,97.60
2017-03-25T06:24:34.244Z,97.40
2017-03-25T06:25:40.293Z,97.40
2017-03-25T06:26:46.400Z,97.50
2017-03-25T06:27:52.266Z,97.50
2017-03-25T06:28:58.098Z,97.60
2017-03-25T06:30:03.943Z,97.60
2017-03-25T06:31:09.697Z,97.50
2017-03-25T06:32:15.583Z,97.40
2017-03-25T06:33:22.064Z,97.30
2017-03-25T06:34:28.074Z,97.30
2017-03-25T06:35:33.798Z,97.10
2017-03-25T06:36:39.611Z,97.10
2017-03-25T06:37:46.413Z,97.10
2017-03-25T06:38:52.262Z,97.20
2017-03-25T06:39:58.158Z,97.10
2017-03-25T06:41:03.908Z,97.10
2017-03-25T06:42:09.715Z,97.10
2017-03-25T06:43:15.681Z,97.20
2017-03-25T06:44:21.709Z,97.20
2017-03-25T06:45:27.515Z,97.30
2017-03-25T06:46:33.333Z,97.30
2017-03-25T06:47:39.177Z,97.20
2017-03-25T06:48:45.130Z,97.30
2017-03-25T06:49:51.256Z,97.30
2017-03-25T06:50:57.875Z,97.30
2017-03-25T06:52:03.584Z,97.40
2017-03-25T06:53:09.591Z,97.40
2017-03-25T06:54:15.601Z,97.40
2017-03-25T06:55:21.605Z,97.40
2017-03-25T06:56:27.475Z,97.50
2017-03-25T06:57:33.314Z,97.30
2017-03-25T06:58:39.883Z,97.50
2017-03-25T06:59:46.002Z,97.20
2017-03-25T07:00:51.813Z,97.20
2017-03-25T07:01:57.702Z,97.10
2017-03-25T07:03:04.459Z,97.20
2017-03-25T07:04:10.374Z,97.10
2017-03-25T07:05:16.205Z,97.00
2017-03-25T07:06:22.256Z,97.10
2017-03-25T07:07:28.299Z,97.10
2017-03-25T07:08:34.014Z,97.10
2017-03-25T07:09:39.838Z,97.10
2017-03-25T07:10:45.752Z,97.00
2017-03-25T07:11:51.846Z,97.10
2017-03-25T07:12:57.939Z,97.00
2017-03-25T07:14:03.782Z,96.90
2017-03-25T07:15:09.832Z,97.00
2017-03-25T07:16:15.834Z,96.90
2017-03-25T07:17:21.895Z,96.70
2017-03-25T07:18:27.990Z,96.70
2017-03-25T07:19:33.869Z,96.80
2017-03-25T07:20:40.454Z,96.80
2017-03-25T07:21:47.011Z,96.70
2017-03-25T07:22:53.094Z,96.80
2017-03-25T07:23:58.978Z,96.50
2017-03-25T07:25:05.084Z,96.50
2017-03-25T07:26:10.795Z,96.40
2017-03-25T07:27:17.314Z,96.50
2017-03-25T07:28:23.107Z,96.60
2017-03-25T07:29:29.049Z,96.60
2017-03-25T07:30:34.768Z,96.90
2017-03-25T07:31:40.602Z,97.00
2017-03-25T07:32:46.586Z,97.00
2017-03-25T07:33:52.829Z,97.30
2017-03-25T07:34:58.753Z,97.40
2017-03-25T07:36:04.446Z,97.80
2017-03-25T07:37:10.209Z,97.70
2017-03-25T07:38:16.216Z,97.60
2017-03-25T07:39:22.744Z,97.70
2017-03-25T07:40:28.556Z,97.70
2017-03-25T07:41:35.039Z,97.70
2017-03-25T07:42:41.024Z,97.80
2017-03-25T07:43:46.768Z,97.80
2017-03-25T07:44:52.651Z,97.80
2017-03-25T07:45:58.623Z,97.70
2017-03-25T07:47:04.457Z,97.60
2017-03-25T07:48:10.459Z,97.60
2017-03-25T07:49:16.966Z,97.70
2017-03-25T07:50:22.734Z,97.70
2017-03-25T07:51:28.634Z,97.70
2017-03-25T07:52:34.608Z,97.80
2017-03-25T07:53:40.407Z,97.70
2017-03-25T07:54:46.440Z,97.80
2017-03-25T07:55:52.315Z,97.80
2017-03-25T07:56:58.248Z,97.90
2017-03-25T07:58:04.009Z,97.80
2017-03-25T07:59:10.587Z,97.60
2017-03-25T08:00:17.200Z,97.70
2017-03-25T08:01:23.739Z,97.60
2017-03-25T08:02:30.174Z,97.50
2017-03-25T08:03:36.114Z,97.50
2017-03-25T08:04:42.768Z,97.40
2017-03-25T08:05:48.884Z,97.50
2017-03-25T08:06:54.763Z,97.40
2017-03-25T08:08:00.771Z,97.30
2017-03-25T08:09:06.748Z,97.20
2017-03-25T08:10:12.570Z,97.20
2017-03-25T08:11:18.525Z,97.30
2017-03-25T08:12:24.534Z,97.30
2017-03-25T08:13:30.251Z,97.20
2017-03-25T08:14:36.022Z,97.20
2017-03-25T08:15:42.538Z,97.50
2017-03-25T08:16:48.605Z,97.30
2017-03-25T08:17:54.615Z,97.10
2017-03-25T08:19:00.381Z,97.20
2017-03-25T08:20:06.216Z,97.50
2017-03-25T08:21:12.197Z,97.20
2017-03-25T08:22:18.145Z,97.00
2017-03-25T08:23:23.987Z,96.90
2017-03-25T08:24:30.030Z,97.00
2017-03-25T08:25:35.987Z,97.00
2017-03-25T08:26:41.823Z,97.00
2017-03-25T08:27:47.864Z,96.80
2017-03-25T08:28:53.708Z,96.50
2017-03-25T08:29:59.773Z,96.40
2017-03-25T08:31:05.772Z,96.60
2017-03-25T08:32:11.834Z,96.50
2017-03-25T08:33:17.651Z,96.30
2017-03-25T08:34:23.650Z,96.10
2017-03-25T08:35:29.646Z,96.30
2017-03-25T08:36:35.407Z,95.60
2017-03-25T08:37:41.298Z,95.40
2017-03-25T08:38:47.343Z,95.00
2017-03-25T08:39:53.321Z,94.70
2017-03-25T08:40:59.158Z,94.70
2017-03-25T08:42:05.841Z,94.50
2017-03-25T08:43:11.818Z,94.50
2017-03-25T08:44:17.798Z,94.60
2017-03-25T08:45:23.667Z,94.70
2017-03-25T08:46:29.590Z,94.20
2017-03-25T08:47:35.483Z,94.20
2017-03-25T08:48:41.262Z,94.30
2017-03-25T08:49:47.074Z,94.20
2017-03-25T08:50:53.168Z,94.00
2017-03-25T08:51:59.857Z,94.10
2017-03-25T08:53:05.828Z,94.00
2017-03-25T08:54:11.841Z,93.90
2017-03-25T08:55:17.560Z,93.70
2017-03-25T08:56:23.345Z,93.40
2017-03-25T08:57:29.288Z,93.10
2017-03-25T08:58:35.295Z,93.00
2017-03-25T08:59:41.281Z,93.00
2017-03-25T09:00:47.030Z,92.90
2017-03-25T09:01:53.725Z,92.80
2017-03-25T09:02:59.615Z,92.30
2017-03-25T09:04:09.684Z,92.40
2017-03-25T09:05:15.632Z,92.30
2017-03-25T09:06:21.395Z,91.90
2017-03-25T09:07:27.465Z,91.40
2017-03-25T09:08:33.482Z,91.60
2017-03-25T09:09:39.281Z,91.50
2017-03-25T09:10:45.841Z,92.00
2017-03-25T09:11:52.322Z,92.10
2017-03-25T09:12:58.385Z,90.70
2017-03-25T09:14:04.930Z,90.60
2017-03-25T09:15:10.671Z,90.00
2017-03-25T09:16:16.511Z,90.20
2017-03-25T09:17:22.419Z,90.20
2017-03-25T09:18:28.966Z,89.70
2017-03-25T09:19:34.754Z,89.50
2017-03-25T09:20:40.656Z,88.80
2017-03-25T09:21:47.120Z,88.20
2017-03-25T09:22:53.620Z,88.70
2017-03-25T09:23:59.451Z,88.80
2017-03-25T09:25:05.277Z,89.40
2017-03-25T09:26:11.106Z,89.50
2017-03-25T09:27:17.177Z,88.50
2017-03-25T09:28:23.024Z,88.40
2017-03-25T09:29:29.023Z,89.10
2017-03-25T09:30:35.595Z,88.50
2017-03-25T09:31:41.553Z,89.30
2017-03-25T09:32:47.406Z,88.80
2017-03-25T09:33:53.377Z,90.10
2017-03-25T09:34:59.208Z,89.90
2017-03-25T09:36:05.246Z,88.90
2017-03-25T09:37:11.214Z,88.80
2017-03-25T09:38:17.251Z,90.20
2017-03-25T09:39:23.024Z,89.50
2017-03-25T09:40:28.927Z,90.20
2017-03-25T09:41:34.928Z,90.40
2017-03-25T09:42:40.993Z,91.00
2017-03-25T09:43:46.741Z,90.90
2017-03-25T09:44:52.474Z,91.00
2017-03-25T09:45:59.011Z,92.00
2017-03-25T09:47:05.566Z,91.60
2017-03-25T09:48:11.542Z,91.60
2017-03-25T09:49:17.408Z,91.20
2017-03-25T09:50:23.259Z,91.70
2017-03-25T09:51:30.023Z,91.60
2017-03-25T09:52:36.029Z,91.90
2017-03-25T09:53:41.822Z,92.00
2017-03-25T09:54:47.646Z,91.90
2017-03-25T09:55:53.484Z,91.70
2017-03-25T09:57:00.323Z,91.70
2017-03-25T09:58:06.132Z,91.80
2017-03-25T09:59:12.139Z,92.20
2017-03-25T10:00:17.941Z,92.80
2017-03-25T10:01:23.927Z,92.60
2017-03-25T10:02:29.859Z,92.70
2017-03-25T10:03:35.909Z,92.10
2017-03-25T10:04:41.838Z,92.10
2017-03-25T10:05:47.670Z,92.60
2017-03-25T10:06:53.601Z,92.80
2017-03-25T10:07:59.672Z,93.40
2017-03-25T10:09:05.539Z,93.60
2017-03-25T10:10:11.449Z,94.20
2017-03-25T10:11:17.314Z,93.60
2017-03-25T10:12:23.042Z,93.80
2017-03-25T10:13:29.176Z,93.50
2017-03-25T10:14:35.151Z,93.90
2017-03-25T10:15:40.978Z,93.70
2017-03-25T10:16:46.676Z,93.90
2017-03-25T10:17:53.247Z,94.20
2017-03-25T10:18:59.190Z,94.30
2017-03-25T10:20:05.201Z,94.50
2017-03-25T10:21:11.253Z,94.80
2017-03-25T10:22:17.957Z,94.80
2017-03-25T10:23:23.733Z,95.10
2017-03-25T10:24:29.487Z,95.20
2017-03-25T10:25:35.499Z,95.20
2017-03-25T10:26:41.240Z,94.70
2017-03-25T10:27:47.778Z,95.40
2017-03-25T10:28:53.606Z,95.40
2017-03-25T10:29:59.612Z,95.50
2017-03-25T10:31:05.346Z,95.30
2017-03-25T10:32:11.324Z,95.30
2017-03-25T10:33:17.144Z,95.10
2017-03-25T10:34:22.936Z,95.30
2017-03-25T10:35:29.512Z,95.40
2017-03-25T10:36:35.227Z,95.60
2017-03-25T10:37:41.349Z,95.80
2017-03-25T10:38:47.199Z,95.60
2017-03-25T10:39:53.148Z,95.50
2017-03-25T10:40:59.082Z,95.80
2017-03-25T10:42:04.946Z,96.00
2017-03-25T10:43:10.811Z,95.60
2017-03-25T10:44:16.606Z,95.40
2017-03-25T10:45:22.328Z,95.00
2017-03-25T10:46:28.237Z,95.10
2017-03-25T10:47:34.076Z,95.20
2017-03-25T10:48:40.043Z,95.00
2017-03-25T10:49:46.148Z,95.30
2017-03-25T10:50:51.928Z,94.70
2017-03-25T10:51:57.919Z,94.70
2017-03-25T10:53:04.075Z,94.70
2017-03-25T10:54:09.935Z,94.60
2017-03-25T10:55:15.659Z,94.40
2017-03-25T10:56:21.582Z,94.40
2017-03-25T10:57:27.598Z,94.30
2017-03-25T10:58:33.396Z,94.90
2017-03-25T10:59:40.098Z,94.10
2017-03-25T11:00:46.833Z,93.80
2017-03-25T11:01:52.772Z,93.70
2017-03-25T11:02:58.657Z,94.40
2017-03-25T11:04:04.432Z,94.30
2017-03-25T11:05:10.287Z,94.60
2017-03-25T11:06:16.113Z,94.90
2017-03-25T11:07:22.831Z,94.80
2017-03-25T11:08:28.664Z,95.00
2017-03-25T11:09:34.670Z,95.00
2017-03-25T11:10:40.627Z,95.40
2017-03-25T11:11:46.707Z,94.60
2017-03-25T11:12:52.741Z,94.90
2017-03-25T11:13:58.721Z,94.50
2017-03-25T11:15:05.284Z,94.40
2017-03-25T11:16:11.108Z,94.00
2017-03-25T11:17:17.590Z,94.10
2017-03-25T11:18:23.614Z,94.40
2017-03-25T11:19:29.659Z,94.30
2017-03-25T11:20:36.471Z,94.70
2017-03-25T11:21:43.270Z,94.30
2017-03-25T11:22:49.104Z,94.80
2017-03-25T11:23:54.804Z,94.30
2017-03-25T11:25:00.878Z,94.40
2017-03-25T11:26:06.807Z,93.80
2017-03-25T11:27:12.533Z,93.80
2017-03-25T11:28:18.518Z,94.20
2017-03-25T11:29:24.470Z,94.10
2017-03-25T11:30:30.318Z,94.20
2017-03-25T11:31:36.002Z,93.70
2017-03-25T11:32:42.587Z,93.80
2017-03-25T11:33:48.579Z,93.80
2017-03-25T11:34:54.324Z,94.10
2017-03-25T11:36:00.348Z,93.90
2017-03-25T11:37:06.156Z,93.90
2017-03-25T11:38:12.037Z,94.30
2017-03-25T11:39:17.853Z,93.70
2017-03-25T11:40:23.624Z,94.10
2017-03-25T11:41:29.416Z,94.00
2017-03-25T11:42:35.225Z,93.90
2017-03-25T11:43:40.922Z,94.30
2017-03-25T11:44:46.807Z,94.20
2017-03-25T11:45:53.304Z,93.70
2017-03-25T11:46:59.095Z,93.70
2017-03-25T11:48:04.981Z,93.80
2017-03-25T11:49:10.866Z,94.10
2017-03-25T11:50:16.795Z,94.00
2017-03-25T11:51:22.890Z,93.90
2017-03-25T11:52:28.763Z,94.00
2017-03-25T11:53:34.725Z,93.90
2017-03-25T11:54:40.758Z,93.60
2017-03-25T11:55:46.590Z,94.00
2017-03-25T11:56:52.559Z,93.90
2017-03-25T11:57:59.315Z,93.60
2017-03-25T11:59:05.316Z,93.80
2017-03-25T12:00:11.038Z,93.90
2017-03-25T12:01:17.118Z,93.90
2017-03-25T12:02:23.030Z,93.80
2017-03-25T12:03:29.803Z,93.60
2017-03-25T12:04:35.569Z,93.30
2017-03-25T12:05:41.442Z,93.50
2017-03-25T12:06:47.215Z,92.80
2017-03-25T12:07:53.243Z,93.10
2017-03-25T12:08:59.181Z,93.00
2017-03-25T12:10:05.186Z,91.90
2017-03-25T12:11:10.972Z,90.70
2017-03-25T12:12:16.884Z,90.50
2017-03-25T12:13:22.831Z,90.70
2017-03-25T12:14:28.853Z,90.50
2017-03-25T12:15:34.875Z,90.10
2017-03-25T12:16:40.703Z,89.00
2017-03-25T12:17:47.648Z,88.40
2017-03-25T12:18:53.533Z,89.20
2017-03-25T12:19:59.410Z,88.50
2017-03-25T12:21:05.427Z,88.10
2017-03-25T12:24:06.861Z,90.20
2017-03-25T12:25:12.884Z,89.10
2017-03-25T12:26:18.640Z,88.50
2017-03-25T12:27:24.611Z,88.50
2017-03-25T12:28:30.572Z,88.30
2017-03-25T12:29:36.340Z,88.70
2017-03-25T12:30:42.111Z,89.70
2017-03-25T12:31:48.108Z,90.00
2017-03-25T12:32:54.130Z,90.20
2017-03-25T12:34:00.192Z,89.10
2017-03-25T12:38:14.328Z,88.50
2017-03-25T12:39:20.285Z,87.50
2017-03-25T12:40:26.011Z,88.80
2017-03-25T12:41:32.548Z,90.20
2017-03-25T12:42:38.388Z,87.10
2017-03-25T12:43:44.359Z,88.40
2017-03-25T12:44:51.035Z,87.60
2017-03-25T12:45:57.121Z,86.70
2017-03-25T12:47:03.661Z,88.00
2017-03-25T12:48:09.419Z,87.90
2017-03-25T12:49:15.366Z,88.90
2017-03-25T12:50:21.252Z,88.20
2017-03-25T12:51:27.814Z,87.60
2017-03-25T12:52:33.596Z,83.50
2017-03-25T12:53:39.323Z,85.40
2017-03-25T12:54:45.064Z,87.00
2017-03-25T12:55:50.810Z,84.60
2017-03-25T12:56:56.832Z,84.30
2017-03-25T12:58:03.484Z,83.60
2017-03-25T12:59:09.353Z,82.90
2017-03-25T13:00:15.893Z,83.80
2017-03-25T13:01:22.453Z,83.70
2017-03-25T13:02:28.944Z,83.80
2017-03-25T13:03:35.472Z,84.70
2017-03-25T13:04:41.306Z,82.70
2017-03-25T13:05:47.050Z,80.40
2017-03-25T13:06:53.532Z,82.60
2017-03-25T13:07:59.512Z,83.30
2017-03-25T13:09:05.450Z,82.10
2017-03-25T13:10:11.288Z,82.10
2017-03-25T13:11:17.028Z,81.40
2017-03-25T13:12:22.824Z,82.20
2017-03-25T13:13:28.948Z,81.80
2017-03-25T13:14:34.794Z,79.90
2017-03-25T13:15:40.626Z,82.70
2017-03-25T13:16:46.327Z,80.70
2017-03-25T13:17:52.079Z,80.80
2017-03-25T13:18:57.901Z,82.60
2017-03-25T13:20:03.680Z,81.10
2017-03-25T13:21:09.384Z,83.20
2017-03-25T13:22:16.064Z,85.00
2017-03-25T13:23:22.013Z,84.80
2017-03-25T13:24:28.121Z,86.10
2017-03-25T13:25:33.884Z,85.70
2017-03-25T13:26:39.628Z,86.70
2017-03-25T13:27:45.672Z,85.70
2017-03-25T13:28:52.397Z,83.90
2017-03-25T13:29:58.235Z,81.20
2017-03-25T13:31:04.190Z,81.50
2017-03-25T13:32:10.027Z,82.10
2017-03-25T13:33:15.971Z,81.10
2017-03-25T13:34:21.777Z,80.90
2017-03-25T13:35:27.676Z,80.90
2017-03-25T13:36:33.716Z,82.40
2017-03-25T13:37:39.589Z,83.50
2017-03-25T13:38:45.501Z,83.70
2017-03-25T13:39:52.163Z,85.00
2017-03-25T13:41:04.157Z,84.30
2017-03-25T13:42:09.961Z,84.00
2017-03-25T13:43:16.008Z,83.00
2017-03-25T13:44:21.748Z,84.30
2017-03-25T13:45:27.580Z,84.20
2017-03-25T13:46:33.419Z,84.20
2017-03-25T13:47:39.424Z,83.90
2017-03-25T13:48:45.176Z,82.30
2017-03-25T13:49:51.147Z,82.50
2017-03-25T13:50:57.156Z,82.20
2017-03-25T13:52:02.902Z,82.20
2017-03-25T13:53:08.960Z,84.40
2017-03-25T13:54:14.883Z,84.60
2017-03-25T13:55:20.874Z,83.90
2017-03-25T13:56:27.400Z,83.30
2017-03-25T13:57:33.379Z,83.90
2017-03-25T13:58:39.266Z,83.20
2017-03-25T13:59:45.242Z,82.80
2017-03-25T14:00:51.250Z,82.90
2017-03-25T14:01:57.931Z,83.70
2017-03-25T14:03:03.789Z,83.50
2017-03-25T14:04:09.538Z,82.90
2017-03-25T14:05:16.127Z,82.70
2017-03-25T14:06:22.204Z,81.30
2017-03-25T14:07:28.244Z,82.20
2017-03-25T14:08:34.011Z,83.00
2017-03-25T14:09:39.744Z,83.50
2017-03-25T14:10:45.765Z,84.50
2017-03-25T14:11:51.741Z,84.60
2017-03-25T14:12:57.461Z,83.10
2017-03-25T14:14:03.365Z,83.00
2017-03-25T14:15:09.160Z,83.30
2017-03-25T14:16:15.698Z,81.50
2017-03-25T14:17:21.455Z,81.90